createdAt,value
2017-10-23T00:00:39.285Z,1013.16
2017-10-23T00:01:40.012Z,1013.11
2017-10-23T00:02:40.027Z,1013.12
2017-10-23T00:03:40.425Z,1013.12
2017-10-23T00:04:39.458Z,1013.11
2017-10-23T00:05:39.702Z,1013.03
2017-10-23T00:06:39.859Z,1013.12
2017-10-23T00:07:39.919Z,1013.15
2017-10-23T00:08:39.632Z,1013.12
2017-10-23T00:09:40.687Z,1013.13
2017-10-23T00:10:40.186Z,1013.13
2017-10-23T00:11:40.302Z,1013.16
2017-10-23T00:12:40.155Z,1013.16
2017-10-23T00:13:40.521Z,1013.18
2017-10-23T00:14:39.699Z,1013.12
2017-10-23T00:15:40.033Z,1013.15
2017-10-23T00:16:39.537Z,1013.17
2017-10-23T00:17:39.697Z,1013.18
2017-10-23T00:18:39.533Z,1013.23
2017-10-23T00:19:40.052Z,1013.17
2017-10-23T00:20:40.132Z,1013.22
2017-10-23T00:21:40.274Z,1013.20
2017-10-23T00:22:40.642Z,1013.23
2017-10-23T00:23:39.411Z,1013.28
2017-10-23T00:24:40.219Z,1013.24
2017-10-23T00:25:40.840Z,1013.26
2017-10-23T00:26:39.710Z,1013.25
2017-10-23T00:27:39.913Z,1013.30
2017-10-23T00:28:40.001Z,1013.28
2017-10-23T00:29:40.075Z,1013.26
2017-10-23T00:30:40.614Z,1013.23
2017-10-23T00:31:40.326Z,1013.28
2017-10-23T00:32:40.326Z,1013.29
2017-10-23T00:33:40.174Z,1013.26
2017-10-23T00:34:40.399Z,1013.20
2017-10-23T00:35:40.664Z,1013.30
2017-10-23T00:36:39.808Z,1013.26
2017-10-23T00:37:39.831Z,1013.24
2017-10-23T00:38:39.743Z,1013.30
2017-10-23T00:39:39.577Z,1013.29
2017-10-23T00:40:39.571Z,1013.23
2017-10-23T00:41:39.799Z,1013.29
2017-10-23T00:42:39.668Z,1013.35
2017-10-23T00:43:39.858Z,1013.33
2017-10-23T00:44:40.231Z,1013.31
2017-10-23T00:45:40.509Z,1013.32
2017-10-23T00:46:39.727Z,1013.29
2017-10-23T00:47:39.525Z,1013.31
2017-10-23T00:48:39.378Z,1013.30
2017-10-23T00:49:40.551Z,1013.27
2017-10-23T00:50:39.419Z,1013.33
2017-10-23T00:51:40.325Z,1013.29
2017-10-23T00:52:39.353Z,1013.33
2017-10-23T00:53:39.590Z,1013.34
2017-10-23T00:54:40.006Z,1013.35
2017-10-23T00:55:39.908Z,1013.36
2017-10-23T00:56:40.656Z,1013.36
2017-10-23T00:57:39.980Z,1013.37
2017-10-23T00:58:40.183Z,1013.36
2017-10-23T00:59:39.953Z,1013.37
2017-10-23T01:00:39.788Z,1013.41
2017-10-23T01:01:40.546Z,1013.40
2017-10-23T01:02:39.455Z,1013.39
2017-10-23T01:03:39.832Z,1013.41
2017-10-23T01:04:39.874Z,1013.37
2017-10-23T01:05:39.952Z,1013.43
2017-10-23T01:06:40.547Z,1013.38
2017-10-23T01:07:39.582Z,1013.43
2017-10-23T01:08:39.797Z,1013.41
2017-10-23T01:09:40.035Z,1013.37
2017-10-23T01:10:39.952Z,1013.35
2017-10-23T01:11:40.142Z,1013.40
2017-10-23T01:12:39.901Z,1013.39
2017-10-23T01:13:39.703Z,1013.35
2017-10-23T01:14:39.686Z,1013.38
2017-10-23T01:15:39.869Z,1013.42
2017-10-23T01:16:40.143Z,1013.45
2017-10-23T01:17:39.880Z,1013.39
2017-10-23T01:18:39.689Z,1013.39
2017-10-23T01:19:40.090Z,1013.43
2017-10-23T01:20:39.520Z,1013.42
2017-10-23T01:21:39.318Z,1013.44
2017-10-23T01:22:39.983Z,1013.42
2017-10-23T01:23:40.237Z,1013.43
2017-10-23T01:24:39.658Z,1013.38
2017-10-23T01:25:39.733Z,1013.36
2017-10-23T01:26:39.554Z,1013.37
2017-10-23T01:27:40.118Z,1013.40
2017-10-23T01:28:40.228Z,1013.35
2017-10-23T01:29:39.976Z,1013.38
2017-10-23T01:30:39.743Z,1013.36
2017-10-23T01:31:39.997Z,1013.30
2017-10-23T01:32:40.278Z,1013.36
2017-10-23T01:33:40.195Z,1013.31
2017-10-23T01:34:40.287Z,1013.32
2017-10-23T01:35:40.047Z,1013.37
2017-10-23T01:36:40.560Z,1013.33
2017-10-23T01:37:39.517Z,1013.31
2017-10-23T01:38:39.700Z,1013.30
2017-10-23T01:39:39.779Z,1013.32
2017-10-23T01:40:39.535Z,1013.32
2017-10-23T01:41:39.646Z,1013.27
2017-10-23T01:42:39.432Z,1013.28
2017-10-23T01:43:39.506Z,1013.29
2017-10-23T01:44:39.943Z,1013.28
2017-10-23T01:45:40.138Z,1013.21
2017-10-23T01:46:39.899Z,1013.29
2017-10-23T01:47:39.420Z,1013.31
2017-10-23T01:48:39.705Z,1013.27
2017-10-23T01:49:40.913Z,1013.26
2017-10-23T01:50:39.975Z,1013.30
2017-10-23T01:51:39.618Z,1013.30
2017-10-23T01:52:39.865Z,1013.26
2017-10-23T01:53:39.699Z,1013.27
2017-10-23T01:54:39.431Z,1013.31
2017-10-23T01:55:39.950Z,1013.28
2017-10-23T01:56:39.676Z,1013.32
2017-10-23T01:57:39.571Z,1013.28
2017-10-23T01:58:39.892Z,1013.29
2017-10-23T01:59:39.726Z,1013.32
2017-10-23T02:00:40.347Z,1013.30
2017-10-23T02:01:39.978Z,1013.33
2017-10-23T02:02:40.257Z,1013.33
2017-10-23T02:03:40.413Z,1013.30
2017-10-23T02:04:39.461Z,1013.30
2017-10-23T02:05:39.750Z,1013.32
2017-10-23T02:06:39.772Z,1013.33
2017-10-23T02:07:39.975Z,1013.30
2017-10-23T02:08:39.902Z,1013.28
2017-10-23T02:09:39.609Z,1013.25
2017-10-23T02:10:39.359Z,1013.28
2017-10-23T02:11:39.488Z,1013.29
2017-10-23T02:12:39.909Z,1013.26
2017-10-23T02:13:39.577Z,1013.28
2017-10-23T02:14:39.359Z,1013.26
2017-10-23T02:15:39.047Z,1013.29
2017-10-23T02:16:40.353Z,1013.26
2017-10-23T02:17:40.018Z,1013.23
2017-10-23T02:18:39.965Z,1013.31
2017-10-23T02:19:39.609Z,1013.31
2017-10-23T02:20:39.786Z,1013.35
2017-10-23T02:21:39.973Z,1013.37
2017-10-23T02:22:39.974Z,1013.33
2017-10-23T02:23:40.134Z,1013.29
2017-10-23T02:24:40.309Z,1013.32
2017-10-23T02:25:40.046Z,1013.34
2017-10-23T02:26:39.653Z,1013.36
2017-10-23T02:27:40.643Z,1013.40
2017-10-23T02:28:39.847Z,1013.42
2017-10-23T02:29:39.645Z,1013.44
2017-10-23T02:30:39.913Z,1013.50
2017-10-23T02:31:39.522Z,1013.46
2017-10-23T02:32:39.856Z,1013.47
2017-10-23T02:33:40.587Z,1013.43
2017-10-23T02:34:39.628Z,1013.43
2017-10-23T02:35:39.353Z,1013.44
2017-10-23T02:36:39.141Z,1013.43
2017-10-23T02:37:40.237Z,1013.44
2017-10-23T02:38:39.545Z,1013.44
2017-10-23T02:39:40.634Z,1013.43
2017-10-23T02:40:39.918Z,1013.43
2017-10-23T02:41:39.851Z,1013.43
2017-10-23T02:42:39.556Z,1013.46
2017-10-23T02:43:39.682Z,1013.46
2017-10-23T02:44:39.356Z,1013.50
2017-10-23T02:45:40.857Z,1013.49
2017-10-23T02:46:39.671Z,1013.55
2017-10-23T02:47:39.791Z,1013.52
2017-10-23T02:48:39.497Z,1013.52
2017-10-23T02:49:39.268Z,1013.55
2017-10-23T02:50:40.702Z,1013.56
2017-10-23T02:51:39.711Z,1013.55
2017-10-23T02:52:39.666Z,1013.53
2017-10-23T02:53:39.440Z,1013.62
2017-10-23T02:54:39.345Z,1013.57
2017-10-23T02:55:39.375Z,1013.57
2017-10-23T02:56:39.486Z,1013.61
2017-10-23T02:57:39.079Z,1013.62
2017-10-23T02:58:40.033Z,1013.61
2017-10-23T02:59:39.995Z,1013.61
2017-10-23T03:00:39.701Z,1013.62
2017-10-23T03:01:40.201Z,1013.62
2017-10-23T03:02:40.067Z,1013.67
2017-10-23T03:03:40.164Z,1013.62
2017-10-23T03:04:39.931Z,1013.63
2017-10-23T03:05:39.459Z,1013.64
2017-10-23T03:06:39.191Z,1013.64
2017-10-23T03:07:40.693Z,1013.66
2017-10-23T03:08:39.669Z,1013.62
2017-10-23T03:09:40.032Z,1013.63
2017-10-23T03:10:39.676Z,1013.66
2017-10-23T03:11:39.362Z,1013.68
2017-10-23T03:12:39.527Z,1013.62
2017-10-23T03:13:39.496Z,1013.64
2017-10-23T03:14:39.383Z,1013.69
2017-10-23T03:15:39.187Z,1013.66
2017-10-23T03:16:40.023Z,1013.70
2017-10-23T03:17:39.632Z,1013.69
2017-10-23T03:18:39.721Z,1013.67
2017-10-23T03:19:39.475Z,1013.69
2017-10-23T03:20:39.729Z,1013.70
2017-10-23T03:21:39.400Z,1013.72
2017-10-23T03:22:39.089Z,1013.72
2017-10-23T03:23:40.240Z,1013.72
2017-10-23T03:24:39.952Z,1013.76
2017-10-23T03:25:39.732Z,1013.70
2017-10-23T03:26:39.851Z,1013.73
2017-10-23T03:27:39.980Z,1013.74
2017-10-23T03:28:39.987Z,1013.73
2017-10-23T03:29:40.413Z,1013.75
2017-10-23T03:30:39.061Z,1013.79
2017-10-23T03:31:39.983Z,1013.80
2017-10-23T03:32:39.763Z,1013.82
2017-10-23T03:33:39.732Z,1013.78
2017-10-23T03:34:39.445Z,1013.78
2017-10-23T03:35:39.558Z,1013.79
2017-10-23T03:36:39.888Z,1013.77
2017-10-23T03:37:39.760Z,1013.78
2017-10-23T03:38:39.672Z,1013.82
2017-10-23T03:39:39.445Z,1013.78
2017-10-23T03:40:39.670Z,1013.83
2017-10-23T03:41:39.341Z,1013.80
2017-10-23T03:42:39.426Z,1013.79
2017-10-23T03:43:39.417Z,1013.79
2017-10-23T03:44:39.596Z,1013.83
2017-10-23T03:45:39.604Z,1013.80
2017-10-23T03:46:39.634Z,1013.82
2017-10-23T03:47:38.968Z,1013.82
2017-10-23T03:48:39.684Z,1013.85
2017-10-23T03:50:31.079Z,1013.80
2017-10-23T03:51:32.620Z,1013.78
2017-10-23T03:52:31.400Z,1013.82
2017-10-23T03:53:31.969Z,1013.83
2017-10-23T03:54:31.693Z,1013.80
2017-10-23T03:55:31.851Z,1013.81
2017-10-23T03:56:31.953Z,1013.85
2017-10-23T03:57:32.035Z,1013.87
2017-10-23T03:58:32.141Z,1013.83
2017-10-23T03:59:32.417Z,1013.87
2017-10-23T04:00:32.527Z,1013.84
2017-10-23T04:01:31.270Z,1013.89
2017-10-23T04:02:31.581Z,1013.88
2017-10-23T04:03:32.375Z,1013.92
2017-10-23T04:04:31.304Z,1013.91
2017-10-23T04:05:31.011Z,1013.93
2017-10-23T04:06:31.814Z,1013.90
2017-10-23T04:07:31.972Z,1013.93
2017-10-23T04:08:31.988Z,1013.99
2017-10-23T04:09:31.657Z,1014.07
2017-10-23T04:10:31.715Z,1013.96
2017-10-23T04:11:31.549Z,1014.01
2017-10-23T04:12:31.838Z,1014.01
2017-10-23T04:13:32.111Z,1014.01
2017-10-23T04:14:32.201Z,1014.00
2017-10-23T04:15:32.267Z,1014.00
2017-10-23T04:16:30.970Z,1014.02
2017-10-23T04:17:32.123Z,1014.09
2017-10-23T04:18:31.906Z,1014.00
2017-10-23T04:19:32.343Z,1014.00
2017-10-23T04:20:31.559Z,1014.06
2017-10-23T04:21:31.157Z,1014.05
2017-10-23T04:22:31.925Z,1014.05
2017-10-23T04:23:31.635Z,1014.06
2017-10-23T04:24:31.316Z,1014.04
2017-10-23T04:25:32.011Z,1014.04
2017-10-23T04:26:31.788Z,1014.09
2017-10-23T04:27:31.564Z,1014.08
2017-10-23T04:28:31.332Z,1014.07
2017-10-23T04:29:30.990Z,1014.04
2017-10-23T04:30:32.133Z,1014.07
2017-10-23T04:31:32.408Z,1014.09
2017-10-23T04:32:31.092Z,1014.08
2017-10-23T04:33:32.311Z,1014.07
2017-10-23T04:34:31.346Z,1014.07
2017-10-23T04:35:31.159Z,1014.10
2017-10-23T04:36:31.604Z,1014.10
2017-10-23T04:37:31.904Z,1014.12
2017-10-23T04:38:31.941Z,1014.13
2017-10-23T04:39:31.678Z,1014.12
2017-10-23T04:40:31.883Z,1014.13
2017-10-23T04:41:31.985Z,1014.15
2017-10-23T04:42:32.548Z,1014.15
2017-10-23T04:43:31.845Z,1014.11
2017-10-23T04:44:31.469Z,1014.17
2017-10-23T04:45:31.597Z,1014.18
2017-10-23T04:46:31.723Z,1014.15
2017-10-23T04:47:31.731Z,1014.17
2017-10-23T04:48:31.877Z,1014.12
2017-10-23T04:49:31.564Z,1014.17
2017-10-23T04:50:31.754Z,1014.10
2017-10-23T04:51:31.281Z,1014.12
2017-10-23T04:52:31.903Z,1014.14
2017-10-23T04:53:32.441Z,1014.13
2017-10-23T04:54:31.221Z,1014.13
2017-10-23T04:55:31.793Z,1014.10
2017-10-23T04:56:31.423Z,1014.05
2017-10-23T04:57:31.299Z,1014.08
2017-10-23T04:58:32.865Z,1014.09
2017-10-23T04:59:32.075Z,1014.09
2017-10-23T05:00:31.463Z,1014.06
2017-10-23T05:01:31.248Z,1014.11
2017-10-23T05:02:31.565Z,1014.10
2017-10-23T05:03:31.173Z,1014.09
2017-10-23T05:04:31.269Z,1014.06
2017-10-23T05:05:32.108Z,1014.04
2017-10-23T05:06:31.824Z,1014.05
2017-10-23T05:07:31.960Z,1014.05
2017-10-23T05:08:31.669Z,1014.07
2017-10-23T05:09:32.252Z,1014.07
2017-10-23T05:10:32.100Z,1014.06
2017-10-23T05:11:32.218Z,1014.11
2017-10-23T05:12:31.313Z,1014.12
2017-10-23T05:13:31.473Z,1014.12
2017-10-23T05:14:31.682Z,1014.16
2017-10-23T05:15:31.903Z,1014.13
2017-10-23T05:16:32.030Z,1014.11
2017-10-23T05:17:32.139Z,1014.16
2017-10-23T05:18:32.319Z,1014.18
2017-10-23T05:19:31.293Z,1014.19
2017-10-23T05:20:31.449Z,1014.23
2017-10-23T05:21:31.966Z,1014.16
2017-10-23T05:22:31.948Z,1014.19
2017-10-23T05:23:31.945Z,1014.21
2017-10-23T05:24:32.062Z,1014.18
2017-10-23T05:25:31.820Z,1014.17
2017-10-23T05:26:32.553Z,1014.18
2017-10-23T05:27:31.433Z,1014.12
2017-10-23T05:28:31.223Z,1014.16
2017-10-23T05:29:31.281Z,1014.12
2017-10-23T05:30:31.373Z,1014.17
2017-10-23T05:31:31.728Z,1014.26
2017-10-23T05:32:32.279Z,1014.21
2017-10-23T05:33:31.620Z,1014.20
2017-10-23T05:34:31.736Z,1014.23
2017-10-23T05:35:31.644Z,1014.30
2017-10-23T05:36:31.649Z,1014.25
2017-10-23T05:37:31.796Z,1014.23
2017-10-23T05:38:32.402Z,1014.25
2017-10-23T05:39:32.255Z,1014.35
2017-10-23T05:40:31.747Z,1014.34
2017-10-23T05:41:31.992Z,1014.36
2017-10-23T05:42:31.733Z,1014.34
2017-10-23T05:43:31.788Z,1014.32
2017-10-23T05:44:32.236Z,1014.39
2017-10-23T05:45:31.347Z,1014.37
2017-10-23T05:46:31.438Z,1014.39
2017-10-23T05:47:31.125Z,1014.38
2017-10-23T05:48:31.762Z,1014.37
2017-10-23T05:49:31.636Z,1014.38
2017-10-23T05:50:31.973Z,1014.39
2017-10-23T05:51:31.715Z,1014.39
2017-10-23T05:52:31.788Z,1014.43
2017-10-23T05:53:32.048Z,1014.41
2017-10-23T05:54:31.834Z,1014.44
2017-10-23T05:55:31.553Z,1014.43
2017-10-23T05:56:31.836Z,1014.45
2017-10-23T05:57:31.747Z,1014.47
2017-10-23T05:58:31.571Z,1014.45
2017-10-23T05:59:32.290Z,1014.49
2017-10-23T06:00:31.507Z,1014.43
2017-10-23T06:01:31.776Z,1014.45
2017-10-23T06:02:32.273Z,1014.42
2017-10-23T06:03:31.029Z,1014.42
2017-10-23T06:04:32.258Z,1014.41
2017-10-23T06:05:31.097Z,1014.47
2017-10-23T06:06:32.317Z,1014.47
2017-10-23T06:07:31.086Z,1014.51
2017-10-23T06:08:32.282Z,1014.50
2017-10-23T06:09:31.439Z,1014.50
2017-10-23T06:10:31.405Z,1014.48
2017-10-23T06:11:31.329Z,1014.48
2017-10-23T06:12:31.463Z,1014.50
2017-10-23T06:13:31.246Z,1014.54
2017-10-23T06:14:31.366Z,1014.49
2017-10-23T06:15:31.882Z,1014.49
2017-10-23T06:16:31.918Z,1014.50
2017-10-23T06:17:32.124Z,1014.50
2017-10-23T06:18:30.997Z,1014.52
2017-10-23T06:19:32.541Z,1014.51
2017-10-23T06:20:31.790Z,1014.54
2017-10-23T06:21:31.714Z,1014.50
2017-10-23T06:22:31.861Z,1014.54
2017-10-23T06:23:31.649Z,1014.51
2017-10-23T06:24:32.379Z,1014.48
2017-10-23T06:25:31.192Z,1014.52
2017-10-23T06:26:32.299Z,1014.50
2017-10-23T06:27:31.213Z,1014.46
2017-10-23T06:28:30.900Z,1014.58
2017-10-23T06:29:32.689Z,1014.53
2017-10-23T06:30:32.043Z,1014.56
2017-10-23T06:31:31.606Z,1014.54
2017-10-23T06:32:31.232Z,1014.55
2017-10-23T06:33:31.410Z,1014.57
2017-10-23T06:34:31.800Z,1014.59
2017-10-23T06:35:32.476Z,1014.58
2017-10-23T06:36:31.867Z,1014.59
2017-10-23T06:37:32.119Z,1014.62
2017-10-23T06:38:31.822Z,1014.60
2017-10-23T06:39:32.176Z,1014.67
2017-10-23T06:40:31.846Z,1014.61
2017-10-23T06:41:32.145Z,1014.63
2017-10-23T06:42:32.574Z,1014.63
2017-10-23T06:43:31.964Z,1014.72
2017-10-23T06:44:32.301Z,1014.65
2017-10-23T06:45:31.384Z,1014.63
2017-10-23T06:46:32.353Z,1014.68
2017-10-23T06:47:31.727Z,1014.69
2017-10-23T06:48:31.610Z,1014.74
2017-10-23T06:49:31.421Z,1014.77
2017-10-23T06:50:31.603Z,1014.75
2017-10-23T06:51:31.941Z,1014.82
2017-10-23T06:52:32.679Z,1014.78
2017-10-23T06:53:31.510Z,1014.83
2017-10-23T06:54:31.790Z,1014.84
2017-10-23T06:55:31.864Z,1014.89
2017-10-23T06:56:32.009Z,1014.84
2017-10-23T06:57:32.662Z,1014.87
2017-10-23T06:58:31.917Z,1014.88
2017-10-23T06:59:31.863Z,1014.87
2017-10-23T07:00:31.999Z,1014.87
2017-10-23T07:01:32.233Z,1014.91
2017-10-23T07:02:31.476Z,1014.88
2017-10-23T07:03:32.017Z,1014.92
2017-10-23T07:04:31.602Z,1014.96
2017-10-23T07:05:31.424Z,1014.96
2017-10-23T07:06:31.171Z,1014.97
2017-10-23T07:07:31.088Z,1014.97
2017-10-23T07:08:32.849Z,1014.94
2017-10-23T07:09:32.105Z,1015.01
2017-10-23T07:10:31.644Z,1014.97
2017-10-23T07:11:31.607Z,1015.03
2017-10-23T07:12:31.685Z,1015.01
2017-10-23T07:13:31.548Z,1015.01
2017-10-23T07:14:31.785Z,1014.96
2017-10-23T07:15:32.784Z,1015.02
2017-10-23T07:16:32.077Z,1014.97
2017-10-23T07:17:31.545Z,1014.99
2017-10-23T07:18:32.015Z,1015.02
2017-10-23T07:19:32.206Z,1015.01
2017-10-23T07:20:31.604Z,1015.02
2017-10-23T07:21:31.772Z,1015.02
2017-10-23T07:22:32.287Z,1015.05
2017-10-23T07:23:31.404Z,1015.03
2017-10-23T07:24:31.408Z,1015.03
2017-10-23T07:25:31.448Z,1015.03
2017-10-23T07:26:31.703Z,1015.03
2017-10-23T07:27:32.124Z,1015.07
2017-10-23T07:28:31.086Z,1015.02
2017-10-23T07:29:31.920Z,1015.06
2017-10-23T07:30:31.342Z,1015.06
2017-10-23T07:31:31.247Z,1015.09
2017-10-23T07:32:31.904Z,1015.11
2017-10-23T07:33:32.030Z,1015.10
2017-10-23T07:34:32.420Z,1015.08
2017-10-23T07:35:31.873Z,1015.11
2017-10-23T07:36:32.029Z,1015.06
2017-10-23T07:37:32.296Z,1015.09
2017-10-23T07:38:31.598Z,1015.05
2017-10-23T07:39:31.826Z,1015.04
2017-10-23T07:40:32.454Z,1015.10
2017-10-23T07:41:31.334Z,1015.06
2017-10-23T07:42:32.072Z,1015.10
2017-10-23T07:43:31.011Z,1015.08
2017-10-23T07:44:31.898Z,1015.09
2017-10-23T07:45:32.979Z,1015.13
2017-10-23T07:46:31.297Z,1015.14
2017-10-23T07:47:31.144Z,1015.16
2017-10-23T07:48:31.026Z,1015.14
2017-10-23T07:49:31.923Z,1015.06
2017-10-23T07:50:32.154Z,1015.14
2017-10-23T07:51:32.027Z,1015.18
2017-10-23T07:52:31.080Z,1015.19
2017-10-23T07:53:31.914Z,1015.16
2017-10-23T07:54:31.789Z,1015.18
2017-10-23T07:55:32.135Z,1015.20
2017-10-23T07:56:31.912Z,1015.20
2017-10-23T07:57:32.347Z,1015.21
2017-10-23T07:58:31.542Z,1015.16
2017-10-23T07:59:31.430Z,1015.25
2017-10-23T08:00:31.347Z,1015.17
2017-10-23T08:01:31.660Z,1015.24
2017-10-23T08:02:31.516Z,1015.19
2017-10-23T08:03:31.290Z,1015.15
2017-10-23T08:04:31.777Z,1015.17
2017-10-23T08:05:31.983Z,1015.25
2017-10-23T08:06:32.521Z,1015.24
2017-10-23T08:07:31.543Z,1015.21
2017-10-23T08:08:31.591Z,1015.25
2017-10-23T08:09:31.560Z,1015.24
2017-10-23T08:10:31.155Z,1015.18
2017-10-23T08:11:30.951Z,1015.14
2017-10-23T08:12:32.724Z,1015.13
2017-10-23T08:13:32.133Z,1015.17
2017-10-23T08:14:31.154Z,1015.13
2017-10-23T08:15:31.686Z,1015.15
2017-10-23T08:16:32.055Z,1015.18
2017-10-23T08:17:31.377Z,1015.22
2017-10-23T08:18:31.608Z,1015.25
2017-10-23T08:19:32.451Z,1015.19
2017-10-23T08:20:31.565Z,1015.15
2017-10-23T08:21:31.787Z,1015.18
2017-10-23T08:22:32.148Z,1015.19
2017-10-23T08:23:31.913Z,1015.15
2017-10-23T08:24:32.224Z,1015.18
2017-10-23T08:25:31.185Z,1015.13
2017-10-23T08:26:31.102Z,1015.14
2017-10-23T08:27:31.314Z,1015.16
2017-10-23T08:28:32.022Z,1015.20
2017-10-23T08:29:30.959Z,1015.20
2017-10-23T08:30:32.328Z,1015.18
2017-10-23T08:31:31.177Z,1015.14
2017-10-23T08:32:32.787Z,1015.13
2017-10-23T08:33:34.035Z,1015.16
2017-10-23T08:34:30.979Z,1015.17
2017-10-23T08:35:31.787Z,1015.09
2017-10-23T08:36:31.439Z,1015.15
2017-10-23T08:37:31.523Z,1015.23
2017-10-23T08:38:31.956Z,1015.26
2017-10-23T08:39:32.005Z,1015.28
2017-10-23T08:40:31.960Z,1015.22
2017-10-23T08:41:32.442Z,1015.20
2017-10-23T08:42:31.178Z,1015.25
2017-10-23T08:43:31.699Z,1015.20
2017-10-23T08:44:31.618Z,1015.17
2017-10-23T08:45:31.823Z,1015.16
2017-10-23T08:46:31.715Z,1015.19
2017-10-23T08:47:32.880Z,1015.20
2017-10-23T08:48:31.925Z,1015.13
2017-10-23T08:49:32.390Z,1015.17
2017-10-23T08:50:31.286Z,1015.11
2017-10-23T08:51:31.544Z,1015.12
2017-10-23T08:52:31.537Z,1015.10
2017-10-23T08:53:31.391Z,1015.11
2017-10-23T08:54:31.307Z,1015.09
2017-10-23T08:55:31.700Z,1015.06
2017-10-23T08:56:32.091Z,1015.05
2017-10-23T08:57:31.216Z,1015.06
2017-10-23T08:58:31.661Z,1015.12
2017-10-23T08:59:31.901Z,1015.15
2017-10-23T09:00:32.155Z,1015.13
2017-10-23T09:01:31.922Z,1015.14
2017-10-23T09:02:32.733Z,1015.16
2017-10-23T09:03:30.995Z,1015.12
2017-10-23T09:04:31.911Z,1015.08
2017-10-23T09:05:32.271Z,1015.10
2017-10-23T09:06:31.717Z,1015.10
2017-10-23T09:07:31.550Z,1015.23
2017-10-23T09:08:31.943Z,1015.13
2017-10-23T09:09:32.349Z,1015.21
2017-10-23T09:10:31.660Z,1015.16
2017-10-23T09:11:31.497Z,1015.16
2017-10-23T09:12:31.316Z,1015.17
2017-10-23T09:13:31.973Z,1015.11
2017-10-23T09:14:31.918Z,1015.09
2017-10-23T09:15:31.836Z,1015.14
2017-10-23T09:16:31.775Z,1015.20
2017-10-23T09:17:32.321Z,1015.17
2017-10-23T09:18:31.679Z,1015.13
2017-10-23T09:19:31.618Z,1015.22
2017-10-23T09:20:31.597Z,1015.19
2017-10-23T09:21:32.007Z,1015.19
2017-10-23T09:22:31.556Z,1015.16
2017-10-23T09:23:31.852Z,1015.16
2017-10-23T09:24:31.519Z,1015.12
2017-10-23T09:25:31.873Z,1015.20
2017-10-23T09:26:31.048Z,1015.19
2017-10-23T09:27:31.516Z,1015.17
2017-10-23T09:28:32.502Z,1015.21
2017-10-23T09:29:31.491Z,1015.22
2017-10-23T09:30:31.450Z,1015.25
2017-10-23T09:31:31.465Z,1015.24
2017-10-23T09:32:31.468Z,1015.25
2017-10-23T09:33:31.706Z,1015.25
2017-10-23T09:34:32.049Z,1015.13
2017-10-23T09:35:31.297Z,1015.24
2017-10-23T09:36:31.359Z,1015.26
2017-10-23T09:37:32.016Z,1015.26
2017-10-23T09:38:31.549Z,1015.29
2017-10-23T09:39:30.951Z,1015.25
2017-10-23T09:40:32.779Z,1015.27
2017-10-23T09:41:31.853Z,1015.25
2017-10-23T09:42:32.214Z,1015.29
2017-10-23T09:43:31.224Z,1015.34
2017-10-23T09:44:31.658Z,1015.33
2017-10-23T09:45:31.238Z,1015.33
2017-10-23T09:46:32.222Z,1015.35
2017-10-23T09:47:31.428Z,1015.30
2017-10-23T09:48:31.608Z,1015.32
2017-10-23T09:49:32.185Z,1015.36
2017-10-23T09:50:32.032Z,1015.31
2017-10-23T09:51:32.013Z,1015.37
2017-10-23T09:52:32.277Z,1015.35
2017-10-23T09:53:31.966Z,1015.35
2017-10-23T09:54:32.438Z,1015.35
2017-10-23T09:55:31.793Z,1015.33
2017-10-23T09:56:31.773Z,1015.38
2017-10-23T09:57:32.021Z,1015.39
2017-10-23T09:58:31.644Z,1015.40
2017-10-23T09:59:32.636Z,1015.32
2017-10-23T10:00:32.029Z,1015.38
2017-10-23T10:01:31.000Z,1015.35
2017-10-23T10:02:31.849Z,1015.33
2017-10-23T10:03:31.066Z,1015.42
2017-10-23T10:04:31.636Z,1015.38
2017-10-23T10:05:32.062Z,1015.32
2017-10-23T10:06:31.827Z,1015.30
2017-10-23T10:07:32.627Z,1015.30
2017-10-23T10:08:31.933Z,1015.32
2017-10-23T10:09:30.993Z,1015.35
2017-10-23T10:10:32.395Z,1015.32
2017-10-23T10:11:31.321Z,1015.22
2017-10-23T10:12:31.789Z,1015.30
2017-10-23T10:13:32.858Z,1015.32
2017-10-23T10:14:31.599Z,1015.28
2017-10-23T10:15:32.015Z,1015.33
2017-10-23T10:16:31.705Z,1015.33
2017-10-23T10:17:31.632Z,1015.33
2017-10-23T10:18:31.532Z,1015.25
2017-10-23T10:19:32.300Z,1015.27
2017-10-23T10:20:32.870Z,1015.29
2017-10-23T10:21:31.783Z,1015.26
2017-10-23T10:22:31.845Z,1015.19
2017-10-23T10:23:32.038Z,1015.20
2017-10-23T10:24:31.078Z,1015.22
2017-10-23T10:25:32.396Z,1015.20
2017-10-23T10:26:31.889Z,1015.20
2017-10-23T10:27:31.816Z,1015.26
2017-10-23T10:28:32.367Z,1015.24
2017-10-23T10:29:31.937Z,1015.20
2017-10-23T10:30:31.383Z,1015.15
2017-10-23T10:31:31.679Z,1015.08
2017-10-23T10:32:32.213Z,1015.13
2017-10-23T10:33:31.168Z,1015.16
2017-10-23T10:34:31.552Z,1015.15
2017-10-23T10:35:31.444Z,1015.08
2017-10-23T10:36:31.851Z,1015.10
2017-10-23T10:37:32.076Z,1015.08
2017-10-23T10:38:31.101Z,1015.16
2017-10-23T10:39:32.081Z,1015.05
2017-10-23T10:40:31.688Z,1015.07
2017-10-23T10:41:32.259Z,1015.06
2017-10-23T10:42:31.786Z,1015.12
2017-10-23T10:43:32.128Z,1015.12
2017-10-23T10:44:31.675Z,1015.15
2017-10-23T10:45:31.865Z,1015.16
2017-10-23T10:46:32.599Z,1015.17
2017-10-23T10:47:31.684Z,1015.21
2017-10-23T10:48:32.382Z,1015.15
2017-10-23T10:49:31.867Z,1015.18
2017-10-23T10:50:31.919Z,1015.25
2017-10-23T10:51:30.794Z,1015.22
2017-10-23T10:52:32.210Z,1015.18
2017-10-23T10:53:31.319Z,1015.25
2017-10-23T10:54:31.878Z,1015.20
2017-10-23T10:55:32.202Z,1015.21
2017-10-23T10:56:31.146Z,1015.29
2017-10-23T10:57:32.043Z,1015.21
2017-10-23T10:58:31.721Z,1015.29
2017-10-23T10:59:32.134Z,1015.31
2017-10-23T11:00:31.638Z,1015.25
2017-10-23T11:01:31.848Z,1015.28
2017-10-23T11:02:32.226Z,1015.40
2017-10-23T11:03:32.128Z,1015.38
2017-10-23T11:04:31.138Z,1015.44
2017-10-23T11:05:31.534Z,1015.41
2017-10-23T11:06:31.867Z,1015.40
2017-10-23T11:07:32.056Z,1015.42
2017-10-23T11:08:31.599Z,1015.41
2017-10-23T11:09:31.745Z,1015.44
2017-10-23T11:10:32.229Z,1015.40
2017-10-23T11:11:31.782Z,1015.40
2017-10-23T11:12:32.349Z,1015.37
2017-10-23T11:13:31.763Z,1015.45
2017-10-23T11:14:31.748Z,1015.37
2017-10-23T11:15:31.798Z,1015.41
2017-10-23T11:16:31.849Z,1015.42
2017-10-23T11:17:32.276Z,1015.42
2017-10-23T11:18:32.155Z,1015.47
2017-10-23T11:19:32.652Z,1015.44
2017-10-23T11:20:31.989Z,1015.48
2017-10-23T11:21:30.921Z,1015.51
2017-10-23T11:22:31.653Z,1015.31
2017-10-23T11:23:32.491Z,1015.43
2017-10-23T11:24:31.456Z,1015.43
2017-10-23T11:25:31.544Z,1015.44
2017-10-23T11:26:31.670Z,1015.52
2017-10-23T11:27:31.739Z,1015.42
2017-10-23T11:28:32.150Z,1015.50
2017-10-23T11:29:31.663Z,1015.58
2017-10-23T11:30:32.129Z,1015.48
2017-10-23T11:31:31.181Z,1015.49
2017-10-23T11:32:31.787Z,1015.50
2017-10-23T11:33:32.230Z,1015.45
2017-10-23T11:34:31.704Z,1015.47
2017-10-23T11:35:31.368Z,1015.46
2017-10-23T11:36:31.954Z,1015.49
2017-10-23T11:37:31.557Z,1015.43
2017-10-23T11:38:31.863Z,1015.39
2017-10-23T11:39:31.271Z,1015.41
2017-10-23T11:40:31.399Z,1015.41
2017-10-23T11:41:31.893Z,1015.45
2017-10-23T11:42:31.482Z,1015.46
2017-10-23T11:43:31.216Z,1015.46
2017-10-23T11:44:32.117Z,1015.46
2017-10-23T11:45:31.160Z,1015.49
2017-10-23T11:46:31.238Z,1015.50
2017-10-23T11:47:31.882Z,1015.53
2017-10-23T11:48:31.840Z,1015.43
2017-10-23T11:49:32.517Z,1015.48
2017-10-23T11:50:31.916Z,1015.51
2017-10-23T11:51:31.392Z,1015.49
2017-10-23T11:52:31.597Z,1015.56
2017-10-23T11:53:31.704Z,1015.57
2017-10-23T11:54:31.372Z,1015.52
2017-10-23T11:55:32.157Z,1015.54
2017-10-23T11:56:31.396Z,1015.51
2017-10-23T11:57:31.342Z,1015.52
2017-10-23T11:58:31.550Z,1015.57
2017-10-23T11:59:31.033Z,1015.55
2017-10-23T12:00:31.609Z,1015.59
2017-10-23T12:01:31.975Z,1015.57
2017-10-23T12:02:31.269Z,1015.55
2017-10-23T12:03:30.755Z,1015.44
2017-10-23T12:04:31.666Z,1015.52
2017-10-23T12:05:33.603Z,1015.53
2017-10-23T12:06:31.660Z,1015.56